Time;durP1;ratioP1;P1;durP2;ratioP2;P2;SDS_P1;SDS_P2;PMS_P1;PMS_P2;Temp;Humidity;BMP_temperature;BMP_pressure;BME280_temperature;BME280_humidity;BME280_pressure;Samples;Min_cycle;Max_cycle;Signal;HPM_P1;HPM_P2
2024/01/05 00:02:14;;;;;;;13.70;7.55;;;2.70;99.90;;;;;;5019753;28;20143;-71
2024/01/05 00:04:39;;;;;;;16.88;7.28;;;2.70;99.90;;;;;;5023951;28;20110;-70
2024/01/05 00:07:09;;;;;;;15.05;8.02;;;2.70;99.90;;;;;;5030085;28;20083;-70
2024/01/05 00:09:35;;;;;;;10.87;6.93;;;2.70;99.90;;;;;;5013984;28;20409;-69
2024/01/05 00:12:01;;;;;;;15.18;7.22;;;2.70;99.90;;;;;;5037972;28;20045;-71
2024/01/05 00:14:27;;;;;;;17.38;7.53;;;2.70;99.90;;;;;;5013682;28;20068;-71
2024/01/05 00:16:52;;;;;;;15.88;7.30;;;2.60;99.90;;;;;;5020737;28;20033;-71
2024/01/05 00:19:18;;;;;;;12.88;6.97;;;2.60;99.90;;;;;;5023858;28;20037;-70
2024/01/05 00:21:43;;;;;;;14.98;7.65;;;2.70;99.90;;;;;;5018246;28;20118;-73
2024/01/05 00:24:09;;;;;;;12.65;7.05;;;2.60;99.90;;;;;;5033257;28;20037;-71
2024/01/05 00:26:40;;;;;;;16.52;7.22;;;2.60;99.90;;;;;;5027568;28;20041;-76
2024/01/05 00:29:05;;;;;;;13.00;7.18;;;2.60;99.90;;;;;;5034575;28;20037;-70
2024/01/05 00:31:31;;;;;;;14.45;7.80;;;2.70;99.90;;;;;;5013702;28;20064;-76
2024/01/05 00:33:57;;;;;;;13.60;7.70;;;2.60;99.90;;;;;;5038956;28;20480;-75
2024/01/05 00:36:22;;;;;;;19.77;7.68;;;2.70;99.90;;;;;;5028514;28;20041;-72
2024/01/05 00:38:48;;;;;;;16.92;8.38;;;2.60;99.90;;;;;;5037505;28;20049;-71
2024/01/05 00:41:14;;;;;;;14.85;7.65;;;2.60;99.90;;;;;;5029961;28;20056;-72
2024/01/05 00:43:41;;;;;;;22.45;8.40;;;2.60;99.90;;;;;;5037254;28;20032;-71
2024/01/05 00:46:06;;;;;;;19.30;8.73;;;2.60;99.90;;;;;;5035964;28;20424;-71
2024/01/05 00:48:32;;;;;;;16.83;8.68;;;2.60;99.90;;;;;;5044504;28;20044;-71
2024/01/05 00:50:58;;;;;;;17.38;8.70;;;2.60;99.90;;;;;;5033622;28;20057;-74
2024/01/05 00:53:23;;;;;;;18.70;9.40;;;2.60;99.90;;;;;;5043483;28;20132;-72
2024/01/05 00:55:49;;;;;;;21.20;10.20;;;2.60;99.90;;;;;;5043966;28;20038;-70
2024/01/05 00:58:15;;;;;;;22.27;10.98;;;2.60;99.90;;;;;;5032724;28;20041;-73
2024/01/05 01:00:40;;;;;;;24.63;11.18;;;2.60;99.90;;;;;;5021640;28;20041;-71
2024/01/05 01:03:06;;;;;;;22.60;10.75;;;2.60;99.90;;;;;;5031973;28;20064;-72
2024/01/05 01:05:32;;;;;;;19.58;9.45;;;2.60;99.90;;;;;;5037504;28;20486;-75
2024/01/05 01:07:57;;;;;;;24.77;10.63;;;2.60;99.90;;;;;;5049690;28;20071;-73
2024/01/05 01:10:23;;;;;;;26.38;10.80;;;2.60;99.90;;;;;;5048075;28;20493;-71
2024/01/05 01:12:48;;;;;;;23.42;10.90;;;2.60;99.90;;;;;;5038906;28;20037;-76
2024/01/05 01:15:14;;;;;;;21.92;10.77;;;2.60;99.90;;;;;;5042634;28;20547;-72
2024/01/05 01:17:39;;;;;;;24.45;10.38;;;2.60;99.90;;;;;;5038010;28;20056;-72
2024/01/05 01:20:06;;;;;;;22.17;10.05;;;2.60;99.90;;;;;;5032697;28;20037;-70
2024/01/05 01:22:31;;;;;;;20.10;9.65;;;2.60;99.90;;;;;;5027649;28;20587;-73
2024/01/05 01:24:57;;;;;;;22.42;9.77;;;2.60;99.90;;;;;;5032049;28;20065;-73
2024/01/05 01:27:23;;;;;;;23.73;10.23;;;2.60;99.90;;;;;;5034040;28;20035;-71
2024/01/05 01:29:48;;;;;;;19.45;8.68;;;2.60;99.90;;;;;;5038570;28;20470;-72
2024/01/05 01:32:15;;;;;;;19.10;8.38;;;2.60;99.90;;;;;;5040305;28;20052;-75
2024/01/05 01:34:41;;;;;;;23.88;9.57;;;2.50;99.90;;;;;;5017705;28;20099;-75
2024/01/05 01:37:06;;;;;;;20.65;8.93;;;2.60;99.90;;;;;;5031749;28;20540;-72
2024/01/05 01:39:32;;;;;;;21.65;8.68;;;2.50;99.90;;;;;;5034230;28;20132;-68
2024/01/05 01:41:58;;;;;;;18.88;8.32;;;2.50;99.90;;;;;;5022146;28;20045;-70
2024/01/05 01:44:24;;;;;;;19.50;8.35;;;2.50;99.90;;;;;;5031605;28;20083;-72
2024/01/05 01:46:51;;;;;;;22.83;8.25;;;2.60;99.90;;;;;;5033216;28;20051;-72
2024/01/05 01:49:17;;;;;;;19.42;8.52;;;2.50;99.90;;;;;;5031064;28;20429;-72
2024/01/05 01:51:45;;;;;;;20.92;8.63;;;2.60;99.90;;;;;;5031025;28;20461;-76
2024/01/05 01:54:10;;;;;;;16.25;7.65;;;2.50;1.00;;;;;;5024375;28;20040;-71
2024/01/05 01:56:37;;;;;;;21.67;8.70;;;2.50;1.00;;;;;;5033490;28;20037;-71
2024/01/05 01:59:05;;;;;;;19.20;7.75;;;2.50;99.90;;;;;;5043726;28;20469;-74
2024/01/05 02:01:30;;;;;;;18.75;7.90;;;2.50;1.00;;;;;;5048163;28;20095;-73
2024/01/05 02:03:56;;;;;;;18.08;6.55;;;2.50;99.90;;;;;;5036461;28;20338;-74
2024/01/05 02:06:22;;;;;;;19.23;8.02;;;2.50;1.00;;;;;;5049650;28;20048;-75
2024/01/05 02:08:50;;;;;;;24.95;8.55;;;2.50;1.00;;;;;;5029096;28;20386;-73
2024/01/05 02:11:16;;;;;;;19.85;8.70;;;2.50;1.00;;;;;;5026540;28;20045;-74
2024/01/05 02:13:42;;;;;;;20.48;8.13;;;2.50;1.00;;;;;;5042914;28;20049;-72
2024/01/05 02:16:08;;;;;;;23.35;8.93;;;2.50;1.00;;;;;;5029022;28;20037;-75
2024/01/05 02:18:33;;;;;;;16.48;7.65;;;2.50;1.00;;;;;;5030971;28;20466;-73
2024/01/05 02:21:00;;;;;;;14.85;7.45;;;2.50;1.00;;;;;;5018211;28;20406;-74
2024/01/05 02:23:27;;;;;;;19.98;8.27;;;2.40;1.00;;;;;;5022864;28;20504;-74
2024/01/05 02:25:56;;;;;;;20.77;8.23;;;2.50;1.00;;;;;;5014265;28;20037;-75
2024/01/05 02:28:22;;;;;;;17.60;8.68;;;2.40;1.00;;;;;;5040254;28;20136;-75
2024/01/05 02:30:48;;;;;;;25.65;9.70;;;2.40;1.00;;;;;;5040100;28;20079;-73
2024/01/05 02:33:14;;;;;;;24.15;9.00;;;2.40;1.00;;;;;;5023149;28;20033;-73
2024/01/05 02:35:40;;;;;;;20.73;8.80;;;2.40;1.00;;;;;;5047749;28;20245;-73
2024/01/05 02:38:06;;;;;;;21.05;8.82;;;2.50;1.00;;;;;;5028835;28;20032;-74
2024/01/05 02:40:32;;;;;;;27.92;9.18;;;2.50;1.00;;;;;;5030228;28;20033;-74
2024/01/05 02:42:57;;;;;;;19.92;8.93;;;2.50;1.00;;;;;;5044161;28;20388;-71
2024/01/05 02:45:24;;;;;;;21.38;9.05;;;2.50;1.00;;;;;;5039769;28;20876;-73
2024/01/05 02:47:52;;;;;;;23.52;9.30;;;2.50;1.00;;;;;;5039350;28;20037;-74
2024/01/05 02:50:18;;;;;;;26.67;9.43;;;2.50;1.00;;;;;;5030424;28;20557;-74
2024/01/05 02:52:44;;;;;;;20.55;9.50;;;2.40;1.00;;;;;;5035617;28;20045;-75
2024/01/05 02:55:11;;;;;;;26.95;9.82;;;2.40;1.00;;;;;;5033532;28;20041;-75
2024/01/05 02:57:37;;;;;;;30.20;9.52;;;2.50;1.00;;;;;;5022860;28;20038;-73
2024/01/05 03:00:03;;;;;;;27.48;9.82;;;2.40;1.00;;;;;;5031573;28;20147;-73
2024/01/05 03:02:29;;;;;;;27.17;9.90;;;2.50;1.00;;;;;;5030489;28;20448;-76
2024/01/05 03:04:55;;;;;;;28.20;10.13;;;2.40;1.00;;;;;;5029891;28;20168;-72
2024/01/05 03:07:21;;;;;;;26.88;9.95;;;2.50;1.00;;;;;;5033467;28;20124;-73
2024/01/05 03:09:46;;;;;;;30.08;10.98;;;2.40;1.00;;;;;;5036987;28;20037;-73
2024/01/05 03:12:12;;;;;;;25.55;9.85;;;2.50;1.00;;;;;;5039560;28;20038;-71
2024/01/05 03:14:38;;;;;;;25.88;9.45;;;2.40;1.00;;;;;;5044601;28;20041;-68
2024/01/05 03:17:04;;;;;;;28.08;9.68;;;2.40;1.00;;;;;;5034915;28;20394;-71
2024/01/05 03:19:30;;;;;;;29.15;10.80;;;2.40;1.00;;;;;;5030574;28;20033;-73
2024/01/05 03:21:56;;;;;;;27.83;9.90;;;2.40;1.00;;;;;;5039149;28;20067;-73
2024/01/05 03:24:22;;;;;;;30.25;10.57;;;2.40;1.00;;;;;;5023207;28;20039;-72
2024/01/05 03:26:48;;;;;;;30.60;10.40;;;2.50;1.00;;;;;;5037071;28;20040;-70
2024/01/05 03:29:14;;;;;;;28.45;10.57;;;2.40;1.00;;;;;;5021760;28;20037;-73
2024/01/05 03:31:39;;;;;;;30.33;10.70;;;2.50;99.90;;;;;;5012357;28;20080;-71
2024/01/05 03:34:05;;;;;;;26.48;10.32;;;2.50;99.90;;;;;;5037876;28;20496;-69
2024/01/05 03:36:30;;;;;;;28.70;10.73;;;2.50;99.90;;;;;;5032606;28;20056;-72
2024/01/05 03:38:56;;;;;;;24.95;9.15;;;2.50;1.00;;;;;;5020009;28;20475;-71
2024/01/05 03:41:22;;;;;;;32.60;11.07;;;2.50;1.00;;;;;;5043801;28;20043;-71
2024/01/05 03:43:47;;;;;;;33.13;10.90;;;2.40;99.90;;;;;;5038793;28;20033;-71
2024/01/05 03:46:13;;;;;;;25.40;9.45;;;2.50;99.90;;;;;;5031263;28;20036;-71
2024/01/05 03:48:39;;;;;;;31.83;10.02;;;2.50;99.90;;;;;;5035691;28;20088;-71
2024/01/05 03:51:05;;;;;;;27.90;8.85;;;2.50;99.90;;;;;;5033518;28;20095;-70
2024/01/05 03:53:31;;;;;;;28.50;10.90;;;2.50;99.90;;;;;;5027265;28;20038;-71
2024/01/05 03:56:00;;;;;;;27.08;11.02;;;2.50;1.00;;;;;;5033249;28;20453;-73
2024/01/05 03:58:26;;;;;;;29.95;11.20;;;2.50;1.00;;;;;;5030766;28;20132;-68
2024/01/05 04:00:51;;;;;;;26.58;9.98;;;2.60;1.00;;;;;;5029248;28;20139;-68
2024/01/05 04:03:17;;;;;;;27.33;10.30;;;2.50;1.00;;;;;;5030709;28;20033;-68
2024/01/05 04:05:43;;;;;;;25.80;9.63;;;2.60;1.00;;;;;;5035708;28;20424;-70
2024/01/05 04:08:09;;;;;;;27.30;10.13;;;2.70;99.90;;;;;;5032300;28;20040;-71
2024/01/05 04:10:36;;;;;;;26.90;10.55;;;2.60;99.90;;;;;;5042060;28;20500;-69
2024/01/05 04:13:02;;;;;;;22.77;10.45;;;2.60;99.90;;;;;;5037016;28;20187;-70
2024/01/05 04:15:28;;;;;;;22.98;9.10;;;2.50;99.90;;;;;;5033230;28;20080;-69
2024/01/05 04:17:53;;;;;;;24.77;9.02;;;2.70;99.90;;;;;;5018640;28;20033;-71
2024/01/05 04:20:19;;;;;;;25.20;9.40;;;2.60;99.90;;;;;;5038521;28;20029;-70
2024/01/05 04:22:45;;;;;;;23.27;8.68;;;2.70;99.90;;;;;;5032171;28;20037;-70
2024/01/05 04:25:10;;;;;;;22.73;8.63;;;2.60;99.90;;;;;;5033612;28;20125;-70
2024/01/05 04:27:37;;;;;;;24.08;9.48;;;2.60;99.90;;;;;;5031242;28;20116;-71
2024/01/05 04:30:04;;;;;;;27.95;9.80;;;2.70;99.90;;;;;;5030785;28;20049;-73
2024/01/05 04:32:29;;;;;;;22.65;8.52;;;2.60;99.90;;;;;;5027943;28;20137;-72
2024/01/05 04:34:55;;;;;;;26.88;9.30;;;2.60;99.90;;;;;;5035881;28;20664;-72
2024/01/05 04:37:21;;;;;;;22.05;9.18;;;2.80;99.90;;;;;;5037261;28;20091;-71
2024/01/05 04:39:47;;;;;;;22.05;8.95;;;2.70;99.90;;;;;;5038427;28;20044;-71
2024/01/05 04:42:14;;;;;;;26.40;9.30;;;2.80;99.90;;;;;;5032411;28;20037;-72
2024/01/05 04:44:40;;;;;;;19.70;8.55;;;2.80;99.90;;;;;;5044686;28;20046;-72
2024/01/05 04:47:06;;;;;;;20.17;8.52;;;2.60;99.90;;;;;;5018228;28;20029;-67
2024/01/05 04:49:33;;;;;;;21.15;8.65;;;2.80;99.90;;;;;;5046825;28;20457;-70
2024/01/05 04:52:00;;;;;;;26.13;10.45;;;2.90;99.90;;;;;;5036582;28;20124;-66
2024/01/05 04:54:25;;;;;;;26.65;9.43;;;2.90;1.00;;;;;;5030199;28;20499;-70
2024/01/05 04:56:51;;;;;;;20.65;9.13;;;2.90;1.00;;;;;;5041513;28;20042;-70
2024/01/05 04:59:17;;;;;;;26.95;10.00;;;2.90;1.00;;;;;;5035288;28;20041;-68
2024/01/05 05:01:42;;;;;;;23.48;9.50;;;2.80;1.00;;;;;;5037166;28;20037;-69
2024/01/05 05:04:08;;;;;;;25.90;9.60;;;2.90;1.00;;;;;;5036095;28;20036;-69
2024/01/05 05:06:34;;;;;;;24.73;10.25;;;2.90;1.00;;;;;;5031791;28;20095;-71
2024/01/05 05:08:59;;;;;;;22.08;9.48;;;2.90;1.00;;;;;;5036199;28;20116;-68
2024/01/05 05:11:25;;;;;;;31.55;11.40;;;2.80;1.00;;;;;;5044870;28;20744;-69
2024/01/05 05:13:50;;;;;;;25.15;9.82;;;2.80;1.00;;;;;;5033265;28;20103;-69
2024/01/05 05:16:16;;;;;;;23.95;10.48;;;2.80;3.20;;;;;;5018201;28;20060;-69
2024/01/05 05:18:42;;;;;;;29.17;11.32;;;2.90;15.20;;;;;;5020865;28;20106;-69
2024/01/05 05:21:07;;;;;;;25.77;10.40;;;3.00;26.20;;;;;;5044638;28;20118;-67
2024/01/05 05:23:33;;;;;;;27.27;10.80;;;3.00;39.10;;;;;;5037132;28;20412;-70
2024/01/05 05:25:59;;;;;;;24.95;10.55;;;3.00;57.30;;;;;;5035352;28;20906;-71
2024/01/05 05:28:24;;;;;;;24.52;10.90;;;2.90;72.20;;;;;;5015632;28;20089;-69
2024/01/05 05:30:50;;;;;;;29.52;10.35;;;2.80;80.40;;;;;;5051323;28;20056;-69
2024/01/05 05:33:16;;;;;;;25.98;9.88;;;2.80;80.00;;;;;;5035151;28;20143;-68
2024/01/05 05:35:41;;;;;;;31.40;10.90;;;3.00;78.00;;;;;;5029723;28;20122;-71
2024/01/05 05:38:07;;;;;;;23.15;10.07;;;3.00;74.50;;;;;;5029948;28;20029;-72
2024/01/05 05:40:33;;;;;;;32.47;10.90;;;2.90;71.30;;;;;;5019794;28;20037;-70
2024/01/05 05:42:58;;;;;;;24.67;9.50;;;2.90;68.30;;;;;;5038184;28;20041;-68
2024/01/05 05:45:24;;;;;;;34.55;11.77;;;2.90;65.20;;;;;;5031610;28;20076;-70
2024/01/05 05:47:51;;;;;;;24.38;10.23;;;2.90;63.50;;;;;;5035991;28;20611;-68
2024/01/05 05:50:17;;;;;;;29.38;11.05;;;3.10;61.40;;;;;;5014464;28;20518;-69
2024/01/05 05:52:43;;;;;;;27.45;10.32;;;3.10;60.00;;;;;;5037103;28;20037;-67
2024/01/05 05:55:12;;;;;;;27.67;11.00;;;3.10;57.40;;;;;;5036979;28;20073;-69
2024/01/05 05:57:41;;;;;;;30.25;11.07;;;3.10;57.10;;;;;;5030038;28;20033;-67
2024/01/05 06:00:08;;;;;;;22.25;8.98;;;3.10;55.10;;;;;;5037189;28;20033;-69
2024/01/05 06:02:34;;;;;;;29.58;11.05;;;3.10;53.30;;;;;;5033238;28;20498;-68
2024/01/05 06:04:59;;;;;;;32.22;11.20;;;3.10;51.40;;;;;;5031740;28;20124;-69
2024/01/05 06:07:25;;;;;;;25.70;10.10;;;3.20;49.80;;;;;;5043708;28;20064;-68
2024/01/05 06:09:51;;;;;;;18.35;8.65;;;3.10;49.80;;;;;;5038173;28;20033;-67
2024/01/05 06:12:17;;;;;;;24.92;10.13;;;3.10;51.90;;;;;;5030671;28;20373;-70
2024/01/05 06:14:44;;;;;;;26.15;9.65;;;3.10;49.90;;;;;;5031960;28;20849;-67
2024/01/05 06:17:09;;;;;;;31.42;10.95;;;3.20;47.50;;;;;;5042405;28;20041;-68
2024/01/05 06:19:35;;;;;;;27.73;10.77;;;3.20;45.90;;;;;;5036728;28;20091;-68
2024/01/05 06:22:01;;;;;;;27.02;10.55;;;3.20;45.70;;;;;;5030320;28;20036;-67
2024/01/05 06:24:28;;;;;;;28.00;10.77;;;3.30;43.90;;;;;;5038422;28;20037;-70
2024/01/05 06:26:54;;;;;;;25.23;10.48;;;3.30;41.30;;;;;;5034073;28;20464;-67
2024/01/05 06:29:19;;;;;;;28.88;10.82;;;3.20;40.00;;;;;;5027252;28;20125;-69
2024/01/05 06:31:45;;;;;;;25.60;10.48;;;3.30;39.40;;;;;;5036768;28;20049;-68
2024/01/05 06:34:11;;;;;;;24.25;10.27;;;3.30;36.80;;;;;;5028876;28;20594;-66
2024/01/05 06:36:36;;;;;;;29.33;11.50;;;3.20;36.30;;;;;;5036171;28;20041;-67
2024/01/05 06:39:02;;;;;;;32.08;12.55;;;3.20;34.10;;;;;;5046664;28;20436;-68
2024/01/05 06:41:28;;;;;;;30.30;12.65;;;3.30;31.40;;;;;;5036660;28;20037;-67
2024/01/05 06:43:54;;;;;;;32.42;12.27;;;3.30;29.90;;;;;;5024100;28;20393;-69
2024/01/05 06:46:20;;;;;;;30.80;11.50;;;3.30;28.00;;;;;;5041014;28;20041;-68
2024/01/05 06:48:45;;;;;;;31.80;12.77;;;3.40;27.90;;;;;;5038974;28;20033;-68
2024/01/05 06:51:11;;;;;;;31.95;12.35;;;3.20;27.80;;;;;;5028130;28;20163;-68
2024/01/05 06:53:37;;;;;;;30.73;13.82;;;3.20;26.30;;;;;;5014127;28;20037;-67
2024/01/05 06:56:02;;;;;;;38.00;13.75;;;3.20;25.60;;;;;;5029810;28;20433;-68
2024/01/05 06:58:28;;;;;;;37.50;13.10;;;3.20;25.10;;;;;;5016068;28;20036;-69
2024/01/05 07:00:54;;;;;;;35.58;13.35;;;3.30;25.10;;;;;;5029961;28;20056;-70
2024/01/05 07:03:20;;;;;;;34.80;14.00;;;3.40;25.20;;;;;;5030046;28;20041;-69
2024/01/05 07:05:46;;;;;;;43.80;15.23;;;3.20;24.10;;;;;;5023140;28;20044;-69
2024/01/05 07:08:12;;;;;;;28.35;11.85;;;3.40;23.70;;;;;;5045028;28;20103;-69
2024/01/05 07:10:38;;;;;;;47.10;15.80;;;3.50;24.30;;;;;;5038160;28;20041;-70
2024/01/05 07:13:06;;;;;;;52.72;16.17;;;3.30;24.40;;;;;;5029827;28;20373;-69
2024/01/05 07:15:32;;;;;;;44.55;15.68;;;3.30;24.60;;;;;;5027466;28;20041;-69
2024/01/05 07:17:58;;;;;;;30.17;12.85;;;3.40;24.50;;;;;;5027364;28;20041;-70
2024/01/05 07:20:23;;;;;;;39.67;15.82;;;3.30;24.70;;;;;;5034590;28;20040;-70
2024/01/05 07:22:49;;;;;;;43.47;15.25;;;3.50;25.10;;;;;;5027333;28;20075;-68
2024/01/05 07:25:15;;;;;;;42.95;15.45;;;3.50;25.30;;;;;;5038163;28;20132;-69
2024/01/05 07:27:40;;;;;;;43.67;15.55;;;3.30;26.00;;;;;;5034732;28;20444;-70
2024/01/05 07:30:06;;;;;;;41.38;15.32;;;3.50;26.70;;;;;;5010352;28;20176;-69
2024/01/05 07:32:32;;;;;;;48.38;17.45;;;3.40;26.70;;;;;;5030390;28;20076;-69
2024/01/05 07:34:58;;;;;;;38.85;15.07;;;3.40;26.70;;;;;;5044628;28;20072;-68
2024/01/05 07:37:24;;;;;;;59.40;18.73;;;3.40;27.80;;;;;;5031430;28;20052;-70
2024/01/05 07:39:50;;;;;;;48.92;16.75;;;3.50;27.90;;;;;;5030019;28;20377;-68
2024/01/05 07:42:16;;;;;;;39.25;15.07;;;3.50;27.70;;;;;;5033665;28;20040;-70
2024/01/05 07:44:41;;;;;;;50.70;16.90;;;3.60;27.90;;;;;;5040295;28;20222;-70
2024/01/05 07:47:09;;;;;;;54.00;17.92;;;3.50;28.40;;;;;;5038739;28;20820;-70
2024/01/05 07:49:35;;;;;;;52.65;18.23;;;3.50;29.40;;;;;;5032582;28;20369;-71
2024/01/05 07:52:00;;;;;;;46.08;17.35;;;3.60;31.10;;;;;;5040375;28;20044;-69
2024/01/05 07:54:26;;;;;;;53.80;17.67;;;3.70;32.00;;;;;;5053880;28;20135;-70
2024/01/05 07:56:52;;;;;;;46.80;17.27;;;3.70;33.20;;;;;;5051980;28;20052;-68
2024/01/05 07:59:17;;;;;;;50.08;17.95;;;3.60;34.00;;;;;;5018266;28;20194;-69
2024/01/05 08:01:43;;;;;;;53.70;17.58;;;3.60;33.30;;;;;;5027349;28;20147;-69
2024/01/05 08:04:09;;;;;;;57.85;18.75;;;3.60;34.10;;;;;;5034075;28;20428;-69
2024/01/05 08:06:35;;;;;;;47.13;17.83;;;3.70;34.70;;;;;;5031856;28;20068;-68
2024/01/05 08:09:00;;;;;;;54.00;16.58;;;3.70;34.40;;;;;;5017153;28;20041;-69
2024/01/05 08:11:26;;;;;;;52.28;19.05;;;3.80;35.00;;;;;;5044350;28;20043;-69
2024/01/05 08:13:52;;;;;;;50.72;17.58;;;3.70;36.00;;;;;;5038659;28;20512;-70
2024/01/05 08:16:18;;;;;;;63.70;19.17;;;3.90;37.00;;;;;;5052162;28;20049;-71
2024/01/05 08:18:43;;;;;;;46.70;17.27;;;3.80;36.60;;;;;;5041596;28;20389;-67
2024/01/05 08:21:09;;;;;;;55.85;17.80;;;3.80;38.70;;;;;;5014845;28;20498;-68
2024/01/05 08:23:36;;;;;;;45.60;15.85;;;3.90;41.80;;;;;;5035391;28;20076;-67
2024/01/05 08:26:07;;;;;;;57.75;19.20;;;3.90;43.90;;;;;;5033714;28;20119;-71
2024/01/05 08:28:34;;;;;;;51.90;17.38;;;4.00;44.50;;;;;;5041019;28;20431;-68
2024/01/05 08:30:59;;;;;;;49.00;18.48;;;3.90;44.80;;;;;;5038583;28;20128;-67
2024/01/05 08:33:25;;;;;;;53.28;18.15;;;4.00;45.50;;;;;;5037710;28;20120;-69
2024/01/05 08:35:51;;;;;;;45.03;16.58;;;4.10;46.10;;;;;;5046414;28;20553;-67
2024/01/05 08:38:16;;;;;;;59.05;17.90;;;3.90;47.00;;;;;;5038638;28;20037;-68
2024/01/05 08:40:42;;;;;;;44.92;17.05;;;4.00;48.00;;;;;;5050765;28;20091;-68
2024/01/05 08:43:10;;;;;;;49.15;18.55;;;4.10;48.40;;;;;;5050626;28;20037;-69
2024/01/05 08:45:35;;;;;;;64.18;19.05;;;4.00;48.40;;;;;;5049578;28;20037;-69
2024/01/05 08:48:01;;;;;;;47.67;18.15;;;4.00;48.60;;;;;;5037075;28;20099;-70
2024/01/05 08:50:26;;;;;;;62.65;19.15;;;4.00;49.30;;;;;;5035117;28;20149;-68
2024/01/05 08:52:52;;;;;;;49.47;17.42;;;4.10;49.10;;;;;;5046115;28;20040;-67
2024/01/05 08:55:18;;;;;;;59.38;18.77;;;4.00;49.60;;;;;;5017525;28;20044;-70
2024/01/05 08:57:43;;;;;;;54.47;19.50;;;4.00;50.30;;;;;;5034204;28;20047;-70
2024/01/05 09:00:09;;;;;;;67.90;19.27;;;4.00;51.00;;;;;;5044686;28;20497;-71
2024/01/05 09:02:36;;;;;;;56.20;18.77;;;4.10;52.10;;;;;;5033215;28;20195;-69
2024/01/05 09:05:04;;;;;;;45.92;17.02;;;4.30;52.50;;;;;;5018886;28;20443;-71
2024/01/05 09:07:30;;;;;;;61.15;18.95;;;4.30;53.30;;;;;;5047836;28;20029;-71
2024/01/05 09:09:56;;;;;;;60.70;19.20;;;4.10;53.80;;;;;;5037841;28;20124;-70
2024/01/05 09:12:21;;;;;;;58.80;19.63;;;4.40;54.30;;;;;;5043866;28;20115;-68
2024/01/05 09:14:47;;;;;;;52.33;17.75;;;4.40;54.60;;;;;;5040233;28;20100;-72
2024/01/05 09:17:13;;;;;;;58.40;18.88;;;4.20;55.00;;;;;;5031932;28;20047;-68
2024/01/05 09:19:38;;;;;;;53.67;17.95;;;4.40;55.10;;;;;;5043495;28;20052;-67
2024/01/05 09:22:06;;;;;;;42.08;16.10;;;4.50;55.50;;;;;;5031683;28;20045;-66
2024/01/05 09:24:32;;;;;;;54.10;18.23;;;4.30;57.60;;;;;;5036939;28;20083;-69
2024/01/05 09:26:58;;;;;;;57.80;19.08;;;4.40;58.50;;;;;;5032438;28;20080;-67
2024/01/05 09:29:23;;;;;;;53.15;17.42;;;4.50;58.50;;;;;;5026442;28;20393;-66
2024/01/05 09:31:50;;;;;;;53.80;18.75;;;4.30;58.40;;;;;;5036897;28;20052;-67
2024/01/05 09:34:16;;;;;;;51.38;18.23;;;4.40;58.20;;;;;;5044392;28;20042;-68
2024/01/05 09:36:42;;;;;;;57.13;18.67;;;4.60;58.70;;;;;;5034037;28;20042;-67
2024/01/05 09:39:11;;;;;;;48.13;16.73;;;4.60;58.80;;;;;;5044047;28;20174;-70
2024/01/05 09:41:36;;;;;;;54.30;19.55;;;4.60;59.10;;;;;;5044113;28;20144;-71
2024/01/05 09:44:03;;;;;;;60.38;20.40;;;4.60;60.10;;;;;;5018062;28;20488;-71
2024/01/05 09:46:29;;;;;;;46.08;17.48;;;4.40;60.60;;;;;;5036685;28;20041;-70
2024/01/05 09:48:58;;;;;;;54.72;18.63;;;4.40;61.60;;;;;;5035305;28;20099;-73
2024/01/05 09:51:28;;;;;;;54.40;18.73;;;4.50;63.00;;;;;;5047677;28;20242;-72
2024/01/05 09:53:54;;;;;;;;;;;4.60;64.70;;;;;;5025445;28;20041;-71
2024/01/05 09:56:21;;;;;;;53.45;18.35;;;4.60;65.60;;;;;;5049748;28;20276;-70
2024/01/05 09:58:48;;;;;;;60.38;19.33;;;4.60;65.70;;;;;;5034131;28;20044;-69
2024/01/05 10:01:30;;;;;;;69.70;21.15;;;4.50;65.30;;;;;;5030540;28;20053;-72
2024/01/05 10:04:01;;;;;;;50.65;17.90;;;4.60;65.80;;;;;;5032626;28;20048;-72
2024/01/05 10:06:28;;;;;;;53.88;17.52;;;4.60;66.20;;;;;;5032083;28;20204;-74
2024/01/05 10:08:55;;;;;;;56.95;19.20;;;4.70;67.30;;;;;;5014020;28;20037;-73
2024/01/05 10:11:42;;;;;;;51.95;18.45;;;4.60;68.40;;;;;;5030721;28;20037;-72
2024/01/05 10:14:13;;;;;;;57.50;18.73;;;4.50;69.10;;;;;;5030807;28;20047;-70
2024/01/05 10:16:39;;;;;;;48.15;17.77;;;4.50;69.00;;;;;;5034016;28;20044;-71
2024/01/05 10:19:16;;;;;;;55.13;17.05;;;4.60;69.10;;;;;;5036655;28;20055;-71
2024/01/05 10:21:44;;;;;;;58.80;18.45;;;4.70;69.20;;;;;;5044484;28;20793;-73
2024/01/05 10:24:29;;;;;;;46.45;17.10;;;4.50;68.60;;;;;;5048929;28;20033;-73
2024/01/05 10:27:12;;;;;;;50.13;16.35;;;4.60;69.10;;;;;;5014088;28;20045;-71
2024/01/05 10:29:43;;;;;;;57.28;17.77;;;4.80;69.90;;;;;;5037490;28;20073;-70
2024/01/05 10:32:19;;;;;;;54.55;17.25;;;4.80;70.10;;;;;;5025011;28;20569;-68
2024/01/05 10:34:49;;;;;;;54.60;17.65;;;4.70;69.90;;;;;;5034247;28;20048;-69
2024/01/05 10:37:17;;;;;;;49.05;16.75;;;4.70;71.00;;;;;;5045354;28;20119;-69
2024/01/05 10:39:53;;;;;;;51.38;16.65;;;4.90;71.70;;;;;;5039942;28;20405;-69
2024/01/05 10:42:26;;;;;;;56.97;16.67;;;4.80;74.00;;;;;;5032394;28;20129;-71
2024/01/05 10:44:54;;;;;;;49.13;14.98;;;4.80;75.90;;;;;;5024901;28;20037;-71
2024/01/05 10:47:24;;;;;;;46.33;16.60;;;4.80;76.10;;;;;;5050207;28;20520;-72
2024/01/05 10:49:51;;;;;;;;;;;4.70;76.60;;;;;;5046415;28;20112;-71
2024/01/05 10:52:22;;;;;;;48.08;15.32;;;4.80;78.90;;;;;;5034268;28;20302;-72
2024/01/05 10:54:49;;;;;;;53.50;17.42;;;4.90;79.20;;;;;;5035203;28;20082;-73
2024/01/05 10:57:16;;;;;;;41.70;15.07;;;4.90;80.80;;;;;;5050298;28;20037;-72
2024/01/05 11:00:04;;;;;;;48.63;16.15;;;5.10;82.60;;;;;;5044069;28;20048;-72
2024/01/05 11:02:40;;;;;;;48.38;16.67;;;4.90;90.80;;;;;;5035743;28;20045;-73
2024/01/05 11:05:10;;;;;;;46.13;16.23;;;4.90;99.90;;;;;;5028471;28;20575;-72
2024/01/05 11:07:37;;;;;;;45.47;17.02;;;5.20;99.90;;;;;;5029694;28;20072;-76
2024/01/05 11:10:28;;;;;;;53.55;17.83;;;4.90;99.90;;;;;;5030040;28;20037;-74
2024/01/05 11:13:32;;;;;;;55.42;17.33;;;5.10;99.90;;;;;;5029024;28;20067;-75
2024/01/05 11:16:39;;;;;;;47.30;16.67;;;5.10;99.90;;;;;;5029817;28;20124;-73
2024/01/05 11:19:34;;;;;;;77.90;20.00;;;5.00;99.90;;;;;;5029123;28;20555;-72
2024/01/05 11:22:03;;;;;;;63.67;18.02;;;5.20;99.90;;;;;;5030993;28;20427;-72
2024/01/05 11:24:28;;;;;;;48.35;15.80;;;5.10;99.90;;;;;;5029355;28;20037;-71
2024/01/05 11:26:55;;;;;;;60.70;16.27;;;5.20;99.90;;;;;;5044912;28;20519;-74
2024/01/05 11:29:45;;;;;;;35.28;13.70;;;5.20;99.90;;;;;;5017412;28;20057;-75
2024/01/05 11:32:36;;;;;;;40.45;13.23;;;5.20;99.90;;;;;;5043201;28;20051;-72
2024/01/05 11:35:03;;;;;;;40.75;14.13;;;5.20;99.90;;;;;;5036994;28;20486;-73
2024/01/05 11:37:30;;;;;;;41.88;13.55;;;5.40;99.90;;;;;;5036467;28;20073;-72
2024/01/05 11:39:57;;;;;;;41.03;13.80;;;5.40;99.90;;;;;;5040085;28;20041;-71
2024/01/05 11:42:29;;;;;;;51.03;15.88;;;5.20;99.90;;;;;;5030022;28;20091;-71
2024/01/05 11:44:56;;;;;;;55.83;16.20;;;5.20;99.90;;;;;;5016524;28;20470;-73
2024/01/05 11:47:47;;;;;;;44.75;15.27;;;5.30;99.90;;;;;;5028317;28;20033;-72
2024/01/05 11:50:33;;;;;;;53.30;17.02;;;5.60;99.90;;;;;;5029491;28;20045;-70
2024/01/05 11:53:27;;;;;;;47.30;15.52;;;5.60;99.90;;;;;;5031170;28;20037;-72
2024/01/05 11:55:58;;;;;;;50.10;16.75;;;5.10;99.90;;;;;;5052480;28;20556;-76
2024/01/05 11:58:27;;;;;;;46.70;15.52;;;4.90;99.90;;;;;;5018262;28;20049;-71
2024/01/05 12:00:56;;;;;;;46.20;15.25;;;5.60;99.90;;;;;;5037566;28;20057;-71
2024/01/05 12:03:24;;;;;;;55.35;16.27;;;5.60;99.90;;;;;;5030184;28;20033;-69
2024/01/05 12:05:51;;;;;;;32.95;13.68;;;5.60;99.90;;;;;;5029299;28;20095;-70
2024/01/05 12:08:17;;;;;;;42.17;14.27;;;5.60;99.90;;;;;;5040443;28;20037;-72
2024/01/05 12:10:42;;;;;;;33.67;13.05;;;5.70;99.90;;;;;;5032374;28;20044;-69
2024/01/05 12:13:08;;;;;;;35.78;11.65;;;5.10;99.90;;;;;;5035688;28;20130;-71
2024/01/05 12:15:35;;;;;;;34.53;13.10;;;5.30;99.90;;;;;;5018211;28;20061;-70
2024/01/05 12:18:03;;;;;;;43.40;14.05;;;5.70;99.90;;;;;;5029210;28;20056;-70
2024/01/05 12:20:29;;;;;;;46.63;14.23;;;5.80;99.90;;;;;;5014500;28;20049;-70
2024/01/05 12:22:55;;;;;;;38.97;13.65;;;5.20;99.90;;;;;;5031711;28;20049;-69
2024/01/05 12:25:20;;;;;;;37.53;14.48;;;5.30;99.90;;;;;;5031126;28;20430;-69
2024/01/05 12:27:46;;;;;;;40.55;12.75;;;5.70;99.90;;;;;;5042290;28;20037;-69
2024/01/05 12:30:13;;;;;;;38.97;13.82;;;5.20;99.90;;;;;;5029640;28;20058;-69
2024/01/05 12:32:39;;;;;;;47.45;14.80;;;6.00;99.90;;;;;;5027994;28;20389;-69
2024/01/05 12:35:05;;;;;;;48.03;14.88;;;5.30;99.90;;;;;;5014275;28;20049;-70
2024/01/05 12:37:34;;;;;;;51.28;15.40;;;5.70;99.90;;;;;;5031425;28;20693;-70
2024/01/05 12:40:10;;;;;;;44.75;14.02;;;5.90;99.90;;;;;;5024471;28;20369;-69
2024/01/05 12:42:37;;;;;;;34.97;13.38;;;5.70;99.90;;;;;;5036354;28;20041;-71
2024/01/05 12:45:08;;;;;;;38.55;13.35;;;5.10;99.90;;;;;;5043562;28;20052;-71